sensor_id;sensor_type;location;lat;lon;timestamp;P1;durP1;ratioP1;P2;durP2;ratioP2
43857;SDS011;29507;51.284;5.758;2023-04-15T00:00:05;6.25;;;2.95;;
43857;SDS011;29507;51.284;5.758;2023-04-15T00:02:32;6.15;;;3.38;;
43857;SDS011;29507;51.284;5.758;2023-04-15T00:04:57;6.53;;;2.95;;
43857;SDS011;29507;51.284;5.758;2023-04-15T00:07:23;6.63;;;2.97;;
43857;SDS011;29507;51.284;5.758;2023-04-15T00:09:48;7.20;;;2.97;;
43857;SDS011;29507;51.284;5.758;2023-04-15T00:12:14;5.72;;;2.53;;
43857;SDS011;29507;51.284;5.758;2023-04-15T00:14:40;10.77;;;2.85;;
43857;SDS011;29507;51.284;5.758;2023-04-15T00:17:05;7.10;;;3.05;;
43857;SDS011;29507;51.284;5.758;2023-04-15T00:19:31;6.85;;;3.10;;
43857;SDS011;29507;51.284;5.758;2023-04-15T00:21:57;5.65;;;3.20;;
43857;SDS011;29507;51.284;5.758;2023-04-15T00:24:23;10.55;;;3.20;;
43857;SDS011;29507;51.284;5.758;2023-04-15T00:26:49;5.28;;;2.38;;
43857;SDS011;29507;51.284;5.758;2023-04-15T00:29:14;5.00;;;2.60;;
43857;SDS011;29507;51.284;5.758;2023-04-15T00:31:40;7.72;;;2.33;;
43857;SDS011;29507;51.284;5.758;2023-04-15T00:34:06;7.10;;;2.80;;
43857;SDS011;29507;51.284;5.758;2023-04-15T00:36:32;9.90;;;2.50;;
43857;SDS011;29507;51.284;5.758;2023-04-15T00:38:59;5.90;;;2.40;;
43857;SDS011;29507;51.284;5.758;2023-04-15T00:41:24;5.15;;;2.22;;
43857;SDS011;29507;51.284;5.758;2023-04-15T00:43:50;8.48;;;2.90;;
43857;SDS011;29507;51.284;5.758;2023-04-15T00:46:16;8.32;;;2.63;;
43857;SDS011;29507;51.284;5.758;2023-04-15T00:51:10;9.52;;;3.50;;
43857;SDS011;29507;51.284;5.758;2023-04-15T00:53:37;6.13;;;2.83;;
43857;SDS011;29507;51.284;5.758;2023-04-15T00:56:02;5.47;;;2.72;;
43857;SDS011;29507;51.284;5.758;2023-04-15T00:58:28;8.52;;;2.67;;
43857;SDS011;29507;51.284;5.758;2023-04-15T01:00:54;7.80;;;3.10;;
43857;SDS011;29507;51.284;5.758;2023-04-15T01:03:21;8.80;;;3.15;;
43857;SDS011;29507;51.284;5.758;2023-04-15T01:05:46;7.47;;;2.80;;
43857;SDS011;29507;51.284;5.758;2023-04-15T01:08:13;5.75;;;2.70;;
43857;SDS011;29507;51.284;5.758;2023-04-15T01:10:38;6.95;;;2.60;;
43857;SDS011;29507;51.284;5.758;2023-04-15T01:13:04;6.85;;;2.90;;
43857;SDS011;29507;51.284;5.758;2023-04-15T01:15:30;9.15;;;2.53;;
43857;SDS011;29507;51.284;5.758;2023-04-15T01:18:00;8.10;;;3.28;;
43857;SDS011;29507;51.284;5.758;2023-04-15T01:20:27;8.38;;;3.45;;
43857;SDS011;29507;51.284;5.758;2023-04-15T01:22:53;9.95;;;3.35;;
43857;SDS011;29507;51.284;5.758;2023-04-15T01:25:53;8.15;;;4.10;;
43857;SDS011;29507;51.284;5.758;2023-04-15T01:28:13;6.90;;;3.22;;
43857;SDS011;29507;51.284;5.758;2023-04-15T01:30:39;8.48;;;3.33;;
43857;SDS011;29507;51.284;5.758;2023-04-15T01:33:04;11.05;;;3.30;;
43857;SDS011;29507;51.284;5.758;2023-04-15T01:35:30;9.98;;;4.07;;
43857;SDS011;29507;51.284;5.758;2023-04-15T01:37:57;9.38;;;3.70;;
43857;SDS011;29507;51.284;5.758;2023-04-15T01:40:28;8.57;;;3.63;;
43857;SDS011;29507;51.284;5.758;2023-04-15T01:42:54;6.40;;;3.70;;
43857;SDS011;29507;51.284;5.758;2023-04-15T01:45:20;7.47;;;3.10;;
43857;SDS011;29507;51.284;5.758;2023-04-15T01:47:46;14.07;;;3.40;;
43857;SDS011;29507;51.284;5.758;2023-04-15T01:50:11;6.50;;;3.70;;
43857;SDS011;29507;51.284;5.758;2023-04-15T01:52:37;6.43;;;3.78;;
43857;SDS011;29507;51.284;5.758;2023-04-15T01:55:03;9.70;;;3.65;;
43857;SDS011;29507;51.284;5.758;2023-04-15T01:57:30;8.75;;;3.38;;
43857;SDS011;29507;51.284;5.758;2023-04-15T01:59:56;7.65;;;3.50;;
43857;SDS011;29507;51.284;5.758;2023-04-15T02:02:21;9.90;;;3.70;;
43857;SDS011;29507;51.284;5.758;2023-04-15T02:04:47;11.85;;;4.13;;
43857;SDS011;29507;51.284;5.758;2023-04-15T02:07:12;7.63;;;3.53;;
43857;SDS011;29507;51.284;5.758;2023-04-15T02:09:38;6.72;;;3.40;;
43857;SDS011;29507;51.284;5.758;2023-04-15T02:12:04;8.43;;;3.58;;
43857;SDS011;29507;51.284;5.758;2023-04-15T02:14:30;10.13;;;3.70;;
43857;SDS011;29507;51.284;5.758;2023-04-15T02:16:55;8.75;;;3.50;;
43857;SDS011;29507;51.284;5.758;2023-04-15T02:19:21;8.60;;;3.70;;
43857;SDS011;29507;51.284;5.758;2023-04-15T02:21:46;8.50;;;3.85;;
43857;SDS011;29507;51.284;5.758;2023-04-15T02:24:12;10.70;;;4.30;;
43857;SDS011;29507;51.284;5.758;2023-04-15T02:26:37;12.23;;;4.00;;
43857;SDS011;29507;51.284;5.758;2023-04-15T02:29:03;10.45;;;4.45;;
43857;SDS011;29507;51.284;5.758;2023-04-15T02:31:29;7.22;;;4.07;;
43857;SDS011;29507;51.284;5.758;2023-04-15T02:33:57;6.10;;;3.25;;
43857;SDS011;29507;51.284;5.758;2023-04-15T02:36:24;9.02;;;4.20;;
43857;SDS011;29507;51.284;5.758;2023-04-15T02:38:51;8.82;;;4.57;;
43857;SDS011;29507;51.284;5.758;2023-04-15T02:41:16;10.27;;;4.72;;
43857;SDS011;29507;51.284;5.758;2023-04-15T02:43:42;8.13;;;3.72;;
43857;SDS011;29507;51.284;5.758;2023-04-15T02:46:08;8.10;;;3.88;;
43857;SDS011;29507;51.284;5.758;2023-04-15T02:48:36;10.20;;;4.75;;
43857;SDS011;29507;51.284;5.758;2023-04-15T02:53:41;10.35;;;4.72;;
43857;SDS011;29507;51.284;5.758;2023-04-15T02:56:07;9.40;;;4.47;;
43857;SDS011;29507;51.284;5.758;2023-04-15T02:58:33;11.55;;;4.75;;
43857;SDS011;29507;51.284;5.758;2023-04-15T03:00:59;8.02;;;3.97;;
43857;SDS011;29507;51.284;5.758;2023-04-15T03:03:25;12.55;;;4.93;;
43857;SDS011;29507;51.284;5.758;2023-04-15T03:05:52;11.73;;;5.00;;
43857;SDS011;29507;51.284;5.758;2023-04-15T03:08:18;10.77;;;4.93;;
43857;SDS011;29507;51.284;5.758;2023-04-15T03:10:45;10.05;;;4.43;;
43857;SDS011;29507;51.284;5.758;2023-04-15T03:13:11;8.32;;;3.95;;
43857;SDS011;29507;51.284;5.758;2023-04-15T03:15:37;8.35;;;4.38;;
43857;SDS011;29507;51.284;5.758;2023-04-15T03:18:02;10.63;;;5.18;;
43857;SDS011;29507;51.284;5.758;2023-04-15T03:20:28;9.90;;;4.97;;
43857;SDS011;29507;51.284;5.758;2023-04-15T03:22:53;9.50;;;4.63;;
43857;SDS011;29507;51.284;5.758;2023-04-15T03:25:19;11.65;;;4.88;;
43857;SDS011;29507;51.284;5.758;2023-04-15T03:27:45;8.68;;;4.30;;
43857;SDS011;29507;51.284;5.758;2023-04-15T03:30:11;14.45;;;5.75;;
43857;SDS011;29507;51.284;5.758;2023-04-15T03:32:37;11.60;;;5.78;;
43857;SDS011;29507;51.284;5.758;2023-04-15T03:35:03;16.20;;;5.90;;
43857;SDS011;29507;51.284;5.758;2023-04-15T03:37:28;10.18;;;4.82;;
43857;SDS011;29507;51.284;5.758;2023-04-15T03:39:54;14.60;;;5.47;;
43857;SDS011;29507;51.284;5.758;2023-04-15T03:42:20;9.98;;;5.03;;
43857;SDS011;29507;51.284;5.758;2023-04-15T03:44:46;10.00;;;4.93;;
43857;SDS011;29507;51.284;5.758;2023-04-15T03:47:11;9.82;;;5.18;;
43857;SDS011;29507;51.284;5.758;2023-04-15T03:49:37;15.27;;;6.20;;
43857;SDS011;29507;51.284;5.758;2023-04-15T03:52:02;15.25;;;7.03;;
43857;SDS011;29507;51.284;5.758;2023-04-15T03:54:28;17.35;;;7.43;;
43857;SDS011;29507;51.284;5.758;2023-04-15T03:56:54;19.00;;;7.53;;
43857;SDS011;29507;51.284;5.758;2023-04-15T03:59:20;12.02;;;6.43;;
43857;SDS011;29507;51.284;5.758;2023-04-15T04:01:46;16.67;;;6.75;;
43857;SDS011;29507;51.284;5.758;2023-04-15T04:04:11;13.00;;;6.00;;
43857;SDS011;29507;51.284;5.758;2023-04-15T04:06:37;16.88;;;7.65;;
43857;SDS011;29507;51.284;5.758;2023-04-15T04:09:03;14.55;;;7.25;;
43857;SDS011;29507;51.284;5.758;2023-04-15T04:11:29;15.15;;;7.95;;
43857;SDS011;29507;51.284;5.758;2023-04-15T04:13:54;18.10;;;7.82;;
43857;SDS011;29507;51.284;5.758;2023-04-15T04:16:20;17.45;;;8.38;;
43857;SDS011;29507;51.284;5.758;2023-04-15T04:18:46;14.27;;;8.20;;
43857;SDS011;29507;51.284;5.758;2023-04-15T04:21:11;17.13;;;7.47;;
43857;SDS011;29507;51.284;5.758;2023-04-15T04:23:37;18.40;;;7.90;;
43857;SDS011;29507;51.284;5.758;2023-04-15T04:26:02;18.60;;;8.02;;
43857;SDS011;29507;51.284;5.758;2023-04-15T04:28:28;20.65;;;8.48;;
43857;SDS011;29507;51.284;5.758;2023-04-15T04:30:53;14.10;;;7.70;;
43857;SDS011;29507;51.284;5.758;2023-04-15T04:33:20;21.63;;;8.77;;
43857;SDS011;29507;51.284;5.758;2023-04-15T04:35:45;17.17;;;8.40;;
43857;SDS011;29507;51.284;5.758;2023-04-15T04:38:11;16.40;;;8.23;;
43857;SDS011;29507;51.284;5.758;2023-04-15T04:40:37;16.77;;;8.23;;
43857;SDS011;29507;51.284;5.758;2023-04-15T04:43:02;12.73;;;7.60;;
43857;SDS011;29507;51.284;5.758;2023-04-15T04:45:28;15.07;;;8.43;;
43857;SDS011;29507;51.284;5.758;2023-04-15T04:47:54;16.25;;;7.72;;
43857;SDS011;29507;51.284;5.758;2023-04-15T04:50:19;16.40;;;8.40;;
43857;SDS011;29507;51.284;5.758;2023-04-15T04:52:45;20.08;;;9.10;;
43857;SDS011;29507;51.284;5.758;2023-04-15T04:55:10;18.08;;;9.93;;
43857;SDS011;29507;51.284;5.758;2023-04-15T04:57:36;16.75;;;8.32;;
43857;SDS011;29507;51.284;5.758;2023-04-15T05:00:03;21.33;;;9.10;;
43857;SDS011;29507;51.284;5.758;2023-04-15T05:02:30;21.45;;;9.32;;
43857;SDS011;29507;51.284;5.758;2023-04-15T05:04:56;16.00;;;8.80;;
43857;SDS011;29507;51.284;5.758;2023-04-15T05:07:22;17.65;;;9.05;;
43857;SDS011;29507;51.284;5.758;2023-04-15T05:09:47;17.67;;;8.98;;
43857;SDS011;29507;51.284;5.758;2023-04-15T05:12:13;21.83;;;9.65;;
43857;SDS011;29507;51.284;5.758;2023-04-15T05:14:39;19.65;;;9.00;;
43857;SDS011;29507;51.284;5.758;2023-04-15T05:17:06;16.58;;;8.82;;
43857;SDS011;29507;51.284;5.758;2023-04-15T05:19:32;18.80;;;9.23;;
43857;SDS011;29507;51.284;5.758;2023-04-15T05:21:58;15.57;;;8.70;;
43857;SDS011;29507;51.284;5.758;2023-04-15T05:24:24;16.95;;;8.95;;
43857;SDS011;29507;51.284;5.758;2023-04-15T05:26:50;23.10;;;8.20;;
43857;SDS011;29507;51.284;5.758;2023-04-15T05:29:15;16.02;;;8.80;;
43857;SDS011;29507;51.284;5.758;2023-04-15T05:31:41;15.13;;;8.20;;
43857;SDS011;29507;51.284;5.758;2023-04-15T05:34:07;14.77;;;8.50;;
43857;SDS011;29507;51.284;5.758;2023-04-15T05:36:33;20.27;;;8.57;;
43857;SDS011;29507;51.284;5.758;2023-04-15T05:38:58;13.35;;;7.75;;
43857;SDS011;29507;51.284;5.758;2023-04-15T05:41:24;17.10;;;7.70;;
43857;SDS011;29507;51.284;5.758;2023-04-15T05:43:50;15.68;;;8.95;;
43857;SDS011;29507;51.284;5.758;2023-04-15T05:46:15;14.43;;;7.90;;
43857;SDS011;29507;51.284;5.758;2023-04-15T05:48:41;13.63;;;7.20;;
43857;SDS011;29507;51.284;5.758;2023-04-15T05:51:07;14.88;;;8.80;;
43857;SDS011;29507;51.284;5.758;2023-04-15T05:53:33;19.63;;;9.05;;
43857;SDS011;29507;51.284;5.758;2023-04-15T05:56:02;16.45;;;8.60;;
43857;SDS011;29507;51.284;5.758;2023-04-15T05:58:27;13.18;;;7.25;;
43857;SDS011;29507;51.284;5.758;2023-04-15T06:00:53;16.83;;;8.38;;
43857;SDS011;29507;51.284;5.758;2023-04-15T06:03:19;13.55;;;8.05;;
43857;SDS011;29507;51.284;5.758;2023-04-15T06:05:44;17.02;;;7.85;;
43857;SDS011;29507;51.284;5.758;2023-04-15T06:08:10;15.35;;;8.60;;
43857;SDS011;29507;51.284;5.758;2023-04-15T06:10:36;18.48;;;8.77;;
43857;SDS011;29507;51.284;5.758;2023-04-15T06:13:02;17.52;;;8.15;;
43857;SDS011;29507;51.284;5.758;2023-04-15T06:15:28;16.15;;;8.45;;
43857;SDS011;29507;51.284;5.758;2023-04-15T06:17:54;14.40;;;7.60;;
43857;SDS011;29507;51.284;5.758;2023-04-15T06:20:20;14.70;;;7.47;;
43857;SDS011;29507;51.284;5.758;2023-04-15T06:22:45;16.20;;;7.82;;
43857;SDS011;29507;51.284;5.758;2023-04-15T06:25:11;15.93;;;7.57;;
43857;SDS011;29507;51.284;5.758;2023-04-15T06:27:37;16.52;;;8.23;;
43857;SDS011;29507;51.284;5.758;2023-04-15T06:30:03;14.52;;;7.28;;
43857;SDS011;29507;51.284;5.758;2023-04-15T06:32:29;18.23;;;9.10;;
43857;SDS011;29507;51.284;5.758;2023-04-15T06:34:55;13.50;;;7.90;;
43857;SDS011;29507;51.284;5.758;2023-04-15T06:37:21;15.55;;;7.03;;
43857;SDS011;29507;51.284;5.758;2023-04-15T06:39:47;14.82;;;8.20;;
43857;SDS011;29507;51.284;5.758;2023-04-15T06:42:12;14.50;;;7.78;;
43857;SDS011;29507;51.284;5.758;2023-04-15T06:44:38;20.73;;;8.52;;
43857;SDS011;29507;51.284;5.758;2023-04-15T06:47:04;15.40;;;8.30;;
43857;SDS011;29507;51.284;5.758;2023-04-15T06:49:29;14.80;;;8.32;;
43857;SDS011;29507;51.284;5.758;2023-04-15T06:51:55;15.23;;;8.73;;
43857;SDS011;29507;51.284;5.758;2023-04-15T06:54:21;17.33;;;7.93;;
43857;SDS011;29507;51.284;5.758;2023-04-15T06:56:47;15.18;;;7.45;;
43857;SDS011;29507;51.284;5.758;2023-04-15T06:59:13;14.82;;;7.45;;
43857;SDS011;29507;51.284;5.758;2023-04-15T07:01:41;14.40;;;8.48;;
43857;SDS011;29507;51.284;5.758;2023-04-15T07:04:07;14.47;;;6.50;;
43857;SDS011;29507;51.284;5.758;2023-04-15T07:06:32;13.25;;;6.88;;
43857;SDS011;29507;51.284;5.758;2023-04-15T07:08:59;15.27;;;6.43;;
43857;SDS011;29507;51.284;5.758;2023-04-15T07:11:25;11.85;;;6.65;;
43857;SDS011;29507;51.284;5.758;2023-04-15T07:13:51;10.55;;;6.25;;
43857;SDS011;29507;51.284;5.758;2023-04-15T07:16:16;14.85;;;5.43;;
43857;SDS011;29507;51.284;5.758;2023-04-15T07:18:42;9.40;;;5.55;;
43857;SDS011;29507;51.284;5.758;2023-04-15T07:21:08;10.25;;;5.15;;
43857;SDS011;29507;51.284;5.758;2023-04-15T07:23:34;12.00;;;6.07;;
43857;SDS011;29507;51.284;5.758;2023-04-15T07:25:59;12.05;;;5.40;;
43857;SDS011;29507;51.284;5.758;2023-04-15T07:28:25;11.27;;;5.80;;
43857;SDS011;29507;51.284;5.758;2023-04-15T07:30:51;8.15;;;4.78;;
43857;SDS011;29507;51.284;5.758;2023-04-15T07:33:17;10.85;;;6.30;;
43857;SDS011;29507;51.284;5.758;2023-04-15T07:35:43;8.15;;;5.03;;
43857;SDS011;29507;51.284;5.758;2023-04-15T07:38:09;8.90;;;4.90;;
43857;SDS011;29507;51.284;5.758;2023-04-15T07:40:36;10.73;;;5.18;;
43857;SDS011;29507;51.284;5.758;2023-04-15T07:43:03;9.70;;;5.32;;
43857;SDS011;29507;51.284;5.758;2023-04-15T07:45:29;10.20;;;5.95;;
43857;SDS011;29507;51.284;5.758;2023-04-15T07:47:55;10.02;;;5.22;;
43857;SDS011;29507;51.284;5.758;2023-04-15T07:50:21;10.75;;;5.30;;
43857;SDS011;29507;51.284;5.758;2023-04-15T07:52:47;10.07;;;5.00;;
43857;SDS011;29507;51.284;5.758;2023-04-15T07:55:14;8.73;;;5.00;;
43857;SDS011;29507;51.284;5.758;2023-04-15T08:00:09;8.20;;;4.25;;
43857;SDS011;29507;51.284;5.758;2023-04-15T08:02:35;8.07;;;5.25;;
43857;SDS011;29507;51.284;5.758;2023-04-15T08:05:01;10.10;;;4.70;;
43857;SDS011;29507;51.284;5.758;2023-04-15T08:07:28;7.78;;;4.63;;
43857;SDS011;29507;51.284;5.758;2023-04-15T08:09:54;5.72;;;3.53;;
43857;SDS011;29507;51.284;5.758;2023-04-15T08:12:20;6.03;;;3.40;;
43857;SDS011;29507;51.284;5.758;2023-04-15T08:14:46;6.10;;;3.78;;
43857;SDS011;29507;51.284;5.758;2023-04-15T08:17:11;6.32;;;3.17;;
43857;SDS011;29507;51.284;5.758;2023-04-15T08:19:37;5.55;;;3.13;;
43857;SDS011;29507;51.284;5.758;2023-04-15T08:22:04;6.68;;;3.67;;
43857;SDS011;29507;51.284;5.758;2023-04-15T08:24:30;6.78;;;3.47;;
43857;SDS011;29507;51.284;5.758;2023-04-15T08:26:56;5.53;;;3.35;;
43857;SDS011;29507;51.284;5.758;2023-04-15T08:29:21;6.50;;;3.20;;
43857;SDS011;29507;51.284;5.758;2023-04-15T08:31:47;6.45;;;3.20;;
43857;SDS011;29507;51.284;5.758;2023-04-15T08:34:13;5.43;;;3.30;;
43857;SDS011;29507;51.284;5.758;2023-04-15T08:36:39;7.55;;;2.90;;
43857;SDS011;29507;51.284;5.758;2023-04-15T08:39:05;4.95;;;2.97;;
43857;SDS011;29507;51.284;5.758;2023-04-15T08:41:39;6.63;;;3.38;;
43857;SDS011;29507;51.284;5.758;2023-04-15T08:46:36;6.30;;;3.00;;
43857;SDS011;29507;51.284;5.758;2023-04-15T08:49:03;6.68;;;3.63;;
43857;SDS011;29507;51.284;5.758;2023-04-15T08:51:30;7.40;;;3.88;;
43857;SDS011;29507;51.284;5.758;2023-04-15T08:53:56;7.47;;;3.90;;
43857;SDS011;29507;51.284;5.758;2023-04-15T08:56:23;6.53;;;3.58;;
43857;SDS011;29507;51.284;5.758;2023-04-15T08:58:50;5.68;;;3.20;;
43857;SDS011;29507;51.284;5.758;2023-04-15T09:01:17;9.80;;;3.80;;
43857;SDS011;29507;51.284;5.758;2023-04-15T09:03:43;5.95;;;3.17;;
43857;SDS011;29507;51.284;5.758;2023-04-15T09:06:10;5.72;;;3.10;;
43857;SDS011;29507;51.284;5.758;2023-04-15T09:08:36;6.38;;;3.40;;
43857;SDS011;29507;51.284;5.758;2023-04-15T09:11:02;5.22;;;2.72;;
43857;SDS011;29507;51.284;5.758;2023-04-15T09:13:28;7.72;;;3.60;;
43857;SDS011;29507;51.284;5.758;2023-04-15T09:15:54;7.78;;;3.65;;
43857;SDS011;29507;51.284;5.758;2023-04-15T09:18:32;7.57;;;3.28;;
43857;SDS011;29507;51.284;5.758;2023-04-15T09:23:38;7.13;;;3.08;;
43857;SDS011;29507;51.284;5.758;2023-04-15T09:26:06;7.00;;;3.95;;
43857;SDS011;29507;51.284;5.758;2023-04-15T09:28:32;7.05;;;3.33;;
43857;SDS011;29507;51.284;5.758;2023-04-15T09:31:05;5.55;;;2.33;;
43857;SDS011;29507;51.284;5.758;2023-04-15T09:33:30;5.85;;;2.50;;
43857;SDS011;29507;51.284;5.758;2023-04-15T09:38:26;6.10;;;2.70;;
43857;SDS011;29507;51.284;5.758;2023-04-15T09:40:52;4.65;;;2.63;;
43857;SDS011;29507;51.284;5.758;2023-04-15T09:43:18;6.40;;;2.70;;
43857;SDS011;29507;51.284;5.758;2023-04-15T09:45:51;7.88;;;2.85;;
43857;SDS011;29507;51.284;5.758;2023-04-15T09:50:44;5.75;;;2.65;;
43857;SDS011;29507;51.284;5.758;2023-04-15T09:53:10;5.10;;;2.80;;
43857;SDS011;29507;51.284;5.758;2023-04-15T09:55:57;4.95;;;2.40;;
43857;SDS011;29507;51.284;5.758;2023-04-15T09:58:29;7.65;;;2.58;;
43857;SDS011;29507;51.284;5.758;2023-04-15T10:00:56;3.88;;;1.90;;
43857;SDS011;29507;51.284;5.758;2023-04-15T10:03:26;4.25;;;2.20;;
43857;SDS011;29507;51.284;5.758;2023-04-15T10:05:58;5.72;;;2.05;;
43857;SDS011;29507;51.284;5.758;2023-04-15T10:08:29;3.95;;;2.00;;
43857;SDS011;29507;51.284;5.758;2023-04-15T10:10:56;4.32;;;1.92;;
43857;SDS011;29507;51.284;5.758;2023-04-15T10:13:24;4.72;;;2.00;;
43857;SDS011;29507;51.284;5.758;2023-04-15T10:15:56;4.60;;;2.03;;
43857;SDS011;29507;51.284;5.758;2023-04-15T10:18:24;4.32;;;2.50;;
43857;SDS011;29507;51.284;5.758;2023-04-15T10:20:51;6.32;;;2.53;;
43857;SDS011;29507;51.284;5.758;2023-04-15T10:23:18;7.40;;;2.92;;
43857;SDS011;29507;51.284;5.758;2023-04-15T10:25:45;6.90;;;3.15;;
43857;SDS011;29507;51.284;5.758;2023-04-15T10:28:13;5.53;;;3.20;;
43857;SDS011;29507;51.284;5.758;2023-04-15T10:30:40;6.45;;;3.17;;
43857;SDS011;29507;51.284;5.758;2023-04-15T10:33:07;6.05;;;2.90;;
43857;SDS011;29507;51.284;5.758;2023-04-15T10:35:34;4.97;;;2.72;;
43857;SDS011;29507;51.284;5.758;2023-04-15T10:38:00;4.20;;;2.15;;
43857;SDS011;29507;51.284;5.758;2023-04-15T10:40:29;4.10;;;1.95;;
43857;SDS011;29507;51.284;5.758;2023-04-15T10:42:59;3.92;;;2.28;;
43857;SDS011;29507;51.284;5.758;2023-04-15T10:45:27;3.67;;;2.22;;
43857;SDS011;29507;51.284;5.758;2023-04-15T10:47:57;4.13;;;1.75;;
43857;SDS011;29507;51.284;5.758;2023-04-15T10:50:25;5.65;;;2.55;;
43857;SDS011;29507;51.284;5.758;2023-04-15T10:52:52;7.72;;;2.03;;
43857;SDS011;29507;51.284;5.758;2023-04-15T10:55:19;4.35;;;1.35;;
43857;SDS011;29507;51.284;5.758;2023-04-15T11:00:25;3.65;;;1.85;;
43857;SDS011;29507;51.284;5.758;2023-04-15T11:05:22;4.57;;;2.00;;
43857;SDS011;29507;51.284;5.758;2023-04-15T11:08:11;4.38;;;2.08;;
43857;SDS011;29507;51.284;5.758;2023-04-15T11:13:04;3.40;;;1.38;;
43857;SDS011;29507;51.284;5.758;2023-04-15T11:18:15;3.30;;;1.70;;
43857;SDS011;29507;51.284;5.758;2023-04-15T11:20:43;3.30;;;2.03;;
43857;SDS011;29507;51.284;5.758;2023-04-15T11:23:11;3.60;;;1.88;;
43857;SDS011;29507;51.284;5.758;2023-04-15T11:25:44;5.85;;;1.92;;
43857;SDS011;29507;51.284;5.758;2023-04-15T11:28:11;6.75;;;2.17;;
43857;SDS011;29507;51.284;5.758;2023-04-15T11:30:37;4.75;;;2.22;;
43857;SDS011;29507;51.284;5.758;2023-04-15T11:33:04;4.82;;;1.70;;
43857;SDS011;29507;51.284;5.758;2023-04-15T11:35:34;5.03;;;1.80;;
43857;SDS011;29507;51.284;5.758;2023-04-15T11:38:04;3.03;;;1.35;;
43857;SDS011;29507;51.284;5.758;2023-04-15T11:40:32;5.43;;;1.30;;
43857;SDS011;29507;51.284;5.758;2023-04-15T11:43:02;2.83;;;1.52;;
43857;SDS011;29507;51.284;5.758;2023-04-15T11:45:31;2.80;;;1.40;;
43857;SDS011;29507;51.284;5.758;2023-04-15T11:50:35;4.05;;;1.25;;
43857;SDS011;29507;51.284;5.758;2023-04-15T11:53:04;5.72;;;1.90;;
43857;SDS011;29507;51.284;5.758;2023-04-15T12:00:52;4.45;;;2.22;;
43857;SDS011;29507;51.284;5.758;2023-04-15T12:03:23;3.83;;;1.67;;
43857;SDS011;29507;51.284;5.758;2023-04-15T12:13:52;4.00;;;2.42;;
43857;SDS011;29507;51.284;5.758;2023-04-15T12:16:19;4.55;;;2.30;;
43857;SDS011;29507;51.284;5.758;2023-04-15T12:18:46;3.97;;;1.90;;
43857;SDS011;29507;51.284;5.758;2023-04-15T12:21:17;4.30;;;1.98;;
43857;SDS011;29507;51.284;5.758;2023-04-15T12:23:49;12.00;;;2.72;;
43857;SDS011;29507;51.284;5.758;2023-04-15T12:26:15;3.88;;;1.83;;
43857;SDS011;29507;51.284;5.758;2023-04-15T12:28:41;3.72;;;1.83;;
43857;SDS011;29507;51.284;5.758;2023-04-15T12:31:08;4.50;;;2.15;;
43857;SDS011;29507;51.284;5.758;2023-04-15T12:33:34;4.70;;;2.30;;
43857;SDS011;29507;51.284;5.758;2023-04-15T12:36:00;4.63;;;2.30;;
43857;SDS011;29507;51.284;5.758;2023-04-15T12:38:25;5.82;;;2.42;;
43857;SDS011;29507;51.284;5.758;2023-04-15T12:40:52;3.78;;;2.03;;
43857;SDS011;29507;51.284;5.758;2023-04-15T12:43:18;3.78;;;1.60;;
43857;SDS011;29507;51.284;5.758;2023-04-15T12:45:43;3.40;;;1.45;;
43857;SDS011;29507;51.284;5.758;2023-04-15T12:48:09;3.97;;;1.85;;
43857;SDS011;29507;51.284;5.758;2023-04-15T12:50:35;2.83;;;1.48;;
43857;SDS011;29507;51.284;5.758;2023-04-15T12:53:02;5.60;;;1.70;;
43857;SDS011;29507;51.284;5.758;2023-04-15T12:55:27;3.30;;;1.73;;
43857;SDS011;29507;51.284;5.758;2023-04-15T12:57:54;3.65;;;1.65;;
43857;SDS011;29507;51.284;5.758;2023-04-15T13:00:21;4.43;;;1.70;;
43857;SDS011;29507;51.284;5.758;2023-04-15T13:02:47;5.80;;;2.05;;
43857;SDS011;29507;51.284;5.758;2023-04-15T13:05:13;4.50;;;1.83;;
43857;SDS011;29507;51.284;5.758;2023-04-15T13:07:39;3.28;;;1.75;;
43857;SDS011;29507;51.284;5.758;2023-04-15T13:10:06;4.20;;;1.88;;
43857;SDS011;29507;51.284;5.758;2023-04-15T13:12:32;4.40;;;1.50;;
43857;SDS011;29507;51.284;5.758;2023-04-15T13:15:01;3.13;;;1.58;;
43857;SDS011;29507;51.284;5.758;2023-04-15T13:17:28;3.33;;;1.45;;
43857;SDS011;29507;51.284;5.758;2023-04-15T13:19:53;4.35;;;1.52;;
43857;SDS011;29507;51.284;5.758;2023-04-15T13:22:19;4.10;;;1.50;;
43857;SDS011;29507;51.284;5.758;2023-04-15T13:24:45;3.90;;;1.77;;
43857;SDS011;29507;51.284;5.758;2023-04-15T13:27:11;5.60;;;1.88;;
43857;SDS011;29507;51.284;5.758;2023-04-15T13:29:36;3.28;;;1.58;;
43857;SDS011;29507;51.284;5.758;2023-04-15T13:32:04;2.50;;;1.33;;
43857;SDS011;29507;51.284;5.758;2023-04-15T13:34:30;3.03;;;1.55;;
43857;SDS011;29507;51.284;5.758;2023-04-15T13:36:56;4.13;;;1.50;;
43857;SDS011;29507;51.284;5.758;2023-04-15T13:39:21;6.72;;;1.40;;
43857;SDS011;29507;51.284;5.758;2023-04-15T13:41:47;5.00;;;1.45;;
43857;SDS011;29507;51.284;5.758;2023-04-15T13:44:13;3.22;;;1.40;;
43857;SDS011;29507;51.284;5.758;2023-04-15T13:46:39;2.17;;;1.20;;
43857;SDS011;29507;51.284;5.758;2023-04-15T13:49:06;3.60;;;2.08;;
43857;SDS011;29507;51.284;5.758;2023-04-15T13:51:32;4.57;;;1.35;;
43857;SDS011;29507;51.284;5.758;2023-04-15T13:54:00;2.28;;;1.13;;
43857;SDS011;29507;51.284;5.758;2023-04-15T13:56:25;3.05;;;1.15;;
43857;SDS011;29507;51.284;5.758;2023-04-15T13:58:51;4.82;;;1.30;;
43857;SDS011;29507;51.284;5.758;2023-04-15T14:01:18;2.92;;;1.45;;
43857;SDS011;29507;51.284;5.758;2023-04-15T14:03:44;2.28;;;1.00;;
43857;SDS011;29507;51.284;5.758;2023-04-15T14:06:10;2.85;;;1.15;;
43857;SDS011;29507;51.284;5.758;2023-04-15T14:08:35;3.42;;;1.30;;
43857;SDS011;29507;51.284;5.758;2023-04-15T14:11:01;2.78;;;1.60;;
43857;SDS011;29507;51.284;5.758;2023-04-15T14:13:27;4.00;;;1.50;;
43857;SDS011;29507;51.284;5.758;2023-04-15T14:15:52;3.75;;;1.55;;
43857;SDS011;29507;51.284;5.758;2023-04-15T14:18:18;3.97;;;1.55;;
43857;SDS011;29507;51.284;5.758;2023-04-15T14:20:44;6.07;;;1.40;;
43857;SDS011;29507;51.284;5.758;2023-04-15T14:23:10;3.15;;;1.27;;
43857;SDS011;29507;51.284;5.758;2023-04-15T14:25:36;4.93;;;1.20;;
43857;SDS011;29507;51.284;5.758;2023-04-15T14:28:03;5.07;;;1.70;;
43857;SDS011;29507;51.284;5.758;2023-04-15T14:30:28;3.42;;;1.45;;
43857;SDS011;29507;51.284;5.758;2023-04-15T14:32:54;3.90;;;1.27;;
43857;SDS011;29507;51.284;5.758;2023-04-15T14:35:20;2.95;;;1.20;;
43857;SDS011;29507;51.284;5.758;2023-04-15T14:37:46;2.60;;;1.30;;
43857;SDS011;29507;51.284;5.758;2023-04-15T14:40:11;2.55;;;1.42;;
43857;SDS011;29507;51.284;5.758;2023-04-15T14:42:37;3.50;;;1.45;;
43857;SDS011;29507;51.284;5.758;2023-04-15T14:45:02;4.03;;;1.23;;
43857;SDS011;29507;51.284;5.758;2023-04-15T14:47:28;4.38;;;1.23;;
43857;SDS011;29507;51.284;5.758;2023-04-15T14:49:55;4.55;;;1.70;;
43857;SDS011;29507;51.284;5.758;2023-04-15T14:52:20;2.88;;;1.20;;
43857;SDS011;29507;51.284;5.758;2023-04-15T14:54:46;4.82;;;1.20;;
43857;SDS011;29507;51.284;5.758;2023-04-15T14:57:11;2.78;;;1.27;;
43857;SDS011;29507;51.284;5.758;2023-04-15T14:59:37;3.50;;;1.10;;
43857;SDS011;29507;51.284;5.758;2023-04-15T15:02:03;2.60;;;1.20;;
43857;SDS011;29507;51.284;5.758;2023-04-15T15:04:28;2.00;;;0.90;;
43857;SDS011;29507;51.284;5.758;2023-04-15T15:06:54;4.38;;;1.33;;
43857;SDS011;29507;51.284;5.758;2023-04-15T15:09:20;2.75;;;1.00;;
43857;SDS011;29507;51.284;5.758;2023-04-15T15:11:48;4.97;;;1.00;;
43857;SDS011;29507;51.284;5.758;2023-04-15T15:14:14;4.00;;;1.40;;
43857;SDS011;29507;51.284;5.758;2023-04-15T15:16:39;1.60;;;0.75;;
43857;SDS011;29507;51.284;5.758;2023-04-15T15:19:05;2.40;;;0.85;;
43857;SDS011;29507;51.284;5.758;2023-04-15T15:21:31;3.00;;;0.65;;